Time;durP1;ratioP1;P1;durP2;ratioP2;P2;SDS_P1;SDS_P2;PMS_P1;PMS_P2;Temp;Humidity;BMP_temperature;BMP_pressure;BME280_temperature;BME280_humidity;BME280_pressure;Samples;Min_cycle;Max_cycle;Signal;HPM_P1;HPM_P2
2022/11/30 00:00:51;;;;;;;185.83;39.47;;;7.20;99.90;;;;;;4991425;28;20483;-52
2022/11/30 00:03:17;;;;;;;226.80;40.37;;;7.10;99.90;;;;;;4991341;28;20027;-52
2022/11/30 00:05:42;;;;;;;177.13;38.47;;;7.20;99.90;;;;;;4991608;28;20462;-50
2022/11/30 00:08:08;;;;;;;200.43;40.17;;;7.10;99.90;;;;;;5012674;23;20054;-57
2022/11/30 00:10:34;;;;;;;177.73;38.23;;;7.10;99.90;;;;;;5010612;28;20034;-57
2022/11/30 00:12:59;;;;;;;156.57;36.73;;;7.10;99.90;;;;;;5010822;28;20026;-56
2022/11/30 00:15:25;;;;;;;169.07;37.00;;;7.10;99.90;;;;;;5011027;28;20034;-56
2022/11/30 00:17:56;;;;;;;152.87;34.87;;;7.10;99.90;;;;;;5010551;28;20026;-58
2022/11/30 00:20:22;;;;;;;154.53;36.27;;;7.10;99.90;;;;;;5011027;28;20542;-57
2022/11/30 00:22:48;;;;;;;154.50;35.37;;;7.10;99.90;;;;;;5011006;28;20091;-56
2022/11/30 00:25:13;;;;;;;165.77;35.87;;;7.20;99.90;;;;;;5010899;28;20069;-56
2022/11/30 00:27:39;;;;;;;145.37;35.00;;;7.20;99.90;;;;;;5010739;28;20041;-56
2022/11/30 00:30:06;;;;;;;150.20;36.60;;;7.20;99.90;;;;;;5010511;28;20422;-57
2022/11/30 00:32:31;;;;;;;152.47;36.67;;;7.20;99.90;;;;;;5010683;28;20037;-57
2022/11/30 00:34:57;;;;;;;150.87;33.47;;;7.20;99.90;;;;;;5010755;28;20029;-57
2022/11/30 00:37:23;;;;;;;153.93;37.47;;;7.30;99.90;;;;;;5010553;28;20505;-57
2022/11/30 00:39:49;;;;;;;150.70;36.77;;;7.30;99.90;;;;;;5010551;28;20502;-57
2022/11/30 00:42:14;;;;;;;144.77;35.03;;;7.30;99.90;;;;;;5010745;28;20038;-56
2022/11/30 00:44:40;;;;;;;158.13;36.33;;;7.30;99.90;;;;;;5014394;28;20046;-57
2022/11/30 00:47:06;;;;;;;178.83;40.00;;;7.30;99.90;;;;;;5014566;28;20030;-56
2022/11/30 00:49:32;;;;;;;166.13;37.33;;;7.30;99.90;;;;;;5014316;28;20030;-57
2022/11/30 00:51:59;;;;;;;169.47;39.07;;;7.30;99.90;;;;;;5014859;28;20053;-56
2022/11/30 00:54:24;;;;;;;194.63;41.83;;;7.30;99.90;;;;;;5014657;28;20538;-57
2022/11/30 00:56:50;;;;;;;173.63;40.37;;;7.40;99.90;;;;;;5014394;28;20117;-57
2022/11/30 00:59:16;;;;;;;178.80;41.10;;;7.40;99.90;;;;;;5013040;28;20399;-57
2022/11/30 01:01:42;;;;;;;168.00;40.23;;;7.30;99.90;;;;;;5014408;28;20034;-57
2022/11/30 01:04:07;;;;;;;161.03;38.17;;;7.40;99.90;;;;;;5014613;28;20030;-58
2022/11/30 01:06:33;;;;;;;157.37;39.43;;;7.40;99.90;;;;;;5014230;28;20565;-56
2022/11/30 01:08:59;;;;;;;161.27;38.87;;;7.40;99.90;;;;;;5014119;28;20030;-58
2022/11/30 01:11:27;;;;;;;177.50;38.67;;;7.40;99.90;;;;;;5014168;28;20029;-58
2022/11/30 01:13:54;;;;;;;178.77;39.40;;;7.40;99.90;;;;;;5014237;28;20407;-58
2022/11/30 01:16:27;;;;;;;163.57;38.40;;;7.40;99.90;;;;;;5013816;28;20041;-57
2022/11/30 01:18:53;;;;;;;170.30;39.30;;;7.40;99.90;;;;;;5013995;28;20130;-57
2022/11/30 01:21:21;;;;;;;168.77;39.13;;;7.40;99.90;;;;;;5014109;28;20188;-58
2022/11/30 01:23:48;;;;;;;209.15;41.35;;;7.40;99.90;;;;;;5014010;28;20037;-57
2022/11/30 01:26:14;;;;;;;177.50;39.13;;;7.40;99.90;;;;;;5013952;28;20037;-57
2022/11/30 01:28:42;;;;;;;274.83;43.77;;;7.50;99.90;;;;;;5013618;28;20061;-56
2022/11/30 01:31:10;;;;;;;228.37;40.93;;;7.40;99.90;;;;;;5013975;28;20032;-56
2022/11/30 01:33:36;;;;;;;196.00;43.97;;;7.40;99.90;;;;;;5013763;28;20022;-56
2022/11/30 01:36:04;;;;;;;168.83;41.03;;;7.40;99.90;;;;;;5012759;28;20414;-57
2022/11/30 01:38:35;;;;;;;172.47;41.17;;;7.30;99.90;;;;;;5013349;28;20038;-58
2022/11/30 01:41:02;;;;;;;154.50;37.30;;;7.30;99.90;;;;;;5013788;28;20521;-55
2022/11/30 01:43:43;;;;;;;139.10;37.93;;;7.40;99.90;;;;;;5013527;28;20045;-57
2022/11/30 01:46:17;;;;;;;129.43;35.73;;;7.40;99.90;;;;;;5013753;28;20037;-57
2022/11/30 01:48:44;;;;;;;122.67;34.57;;;7.30;99.90;;;;;;5013244;28;20030;-57
2022/11/30 01:51:10;;;;;;;118.43;36.10;;;7.40;99.90;;;;;;5013574;28;20096;-56
2022/11/30 01:53:35;;;;;;;119.57;32.37;;;7.40;99.90;;;;;;5013500;28;20037;-55
2022/11/30 01:56:01;;;;;;;96.50;31.47;;;7.40;99.90;;;;;;5012422;28;20041;-56
2022/11/30 01:58:28;;;;;;;82.70;30.40;;;7.30;99.90;;;;;;5013161;28;20026;-55
2022/11/30 02:00:54;;;;;;;73.23;28.33;;;7.30;99.90;;;;;;5013524;28;20036;-55
2022/11/30 02:03:56;;;;;;;69.37;27.60;;;7.30;99.90;;;;;;5013475;28;20041;-56
2022/11/30 02:06:23;;;;;;;66.00;27.97;;;7.30;99.90;;;;;;5013400;28;20026;-56
2022/11/30 02:08:50;;;;;;;66.87;27.87;;;7.20;99.90;;;;;;5012961;28;20088;-57
2022/11/30 02:11:16;;;;;;;67.93;29.83;;;7.20;99.90;;;;;;5013535;28;20026;-56
2022/11/30 02:14:24;;;;;;;80.00;30.40;;;7.20;99.90;;;;;;5013281;28;20026;-55
2022/11/30 02:16:58;;;;;;;87.60;34.53;;;7.20;99.90;;;;;;5010043;28;20046;-53
2022/11/30 02:19:50;;;;;;;99.43;36.13;;;7.20;99.90;;;;;;5013353;28;20040;-55
2022/11/30 02:22:27;;;;;;;94.93;35.57;;;7.20;99.90;;;;;;5013302;28;20528;-56
2022/11/30 02:25:27;;;;;;;104.23;36.77;;;7.20;99.90;;;;;;5013186;28;20022;-55
2022/11/30 02:28:31;;;;;;;102.90;37.83;;;7.10;99.90;;;;;;5012810;28;20038;-54
2022/11/30 02:31:01;;;;;;;102.57;34.87;;;7.10;99.90;;;;;;5011532;28;20030;-55
2022/11/30 02:33:30;;;;;;;102.80;34.80;;;7.00;99.90;;;;;;5012643;28;20394;-55
2022/11/30 02:35:58;;;;;;;96.03;36.85;;;7.10;99.90;;;;;;5012744;28;20041;-55
2022/11/30 02:38:26;;;;;;;96.97;35.67;;;7.10;99.90;;;;;;5012606;28;20613;-55
2022/11/30 02:40:52;;;;;;;99.50;36.43;;;7.10;99.90;;;;;;5012569;28;20115;-56
2022/11/30 02:43:20;;;;;;;101.40;34.90;;;7.00;99.90;;;;;;5012709;28;20561;-54
2022/11/30 02:46:04;;;;;;;108.40;36.20;;;7.00;99.90;;;;;;5012431;28;20026;-56
2022/11/30 02:49:02;;;;;;;107.33;36.33;;;6.90;99.90;;;;;;5011987;28;20096;-56
2022/11/30 02:51:31;;;;;;;108.60;37.00;;;6.90;99.90;;;;;;5012515;28;20030;-54
2022/11/30 02:53:56;;;;;;;104.73;37.17;;;6.80;99.90;;;;;;5012683;28;20037;-55
2022/11/30 02:56:23;;;;;;;103.90;34.70;;;6.90;99.90;;;;;;5012220;28;20553;-56
2022/11/30 02:58:50;;;;;;;95.07;34.53;;;6.80;99.90;;;;;;5012285;28;20501;-54
2022/11/30 03:01:16;;;;;;;100.13;34.40;;;6.80;99.90;;;;;;5011973;28;20706;-54
2022/11/30 03:03:42;;;;;;;98.40;34.57;;;6.70;99.90;;;;;;5011884;28;20121;-55
2022/11/30 03:06:07;;;;;;;94.90;33.27;;;6.70;99.90;;;;;;5011902;28;20041;-55
2022/11/30 03:08:33;;;;;;;90.07;34.27;;;6.60;99.90;;;;;;5011473;28;20038;-55
2022/11/30 03:11:03;;;;;;;90.30;33.70;;;6.60;99.90;;;;;;5011895;28;20030;-56
2022/11/30 03:13:30;;;;;;;89.20;33.97;;;6.50;99.90;;;;;;5012000;28;20033;-55
2022/11/30 03:15:56;;;;;;;95.83;34.00;;;6.50;99.90;;;;;;5011996;28;20065;-55
2022/11/30 03:18:21;;;;;;;91.07;34.80;;;6.50;99.90;;;;;;5011461;28;20062;-56
2022/11/30 03:20:47;;;;;;;84.83;32.83;;;6.50;99.90;;;;;;5011899;28;20034;-55
2022/11/30 03:23:13;;;;;;;77.47;31.37;;;6.50;99.90;;;;;;5010874;28;20438;-56
2022/11/30 03:25:38;;;;;;;78.70;31.47;;;6.50;99.90;;;;;;5011817;28;20112;-56
2022/11/30 03:28:04;;;;;;;76.57;30.70;;;6.50;99.90;;;;;;5011267;28;20026;-56
2022/11/30 03:30:30;;;;;;;64.27;28.17;;;6.50;99.90;;;;;;5011570;28;20037;-53
2022/11/30 03:32:56;;;;;;;64.97;28.93;;;6.50;99.90;;;;;;5011687;28;20026;-55
2022/11/30 03:35:22;;;;;;;56.50;27.57;;;6.50;99.90;;;;;;5024937;28;20460;-55
2022/11/30 03:37:47;;;;;;;61.97;28.10;;;6.40;99.90;;;;;;5029151;28;20061;-55
2022/11/30 03:40:13;;;;;;;63.10;27.87;;;6.40;99.90;;;;;;5030086;28;20402;-56
2022/11/30 03:42:39;;;;;;;68.40;28.00;;;6.40;99.90;;;;;;5030792;28;20484;-56
2022/11/30 03:45:05;;;;;;;58.77;26.70;;;6.40;99.90;;;;;;5030216;28;20017;-53
2022/11/30 03:47:31;;;;;;;61.20;28.40;;;6.50;99.90;;;;;;5030342;28;20025;-54
2022/11/30 03:49:56;;;;;;;62.50;27.13;;;6.50;99.90;;;;;;5030495;28;20025;-56
2022/11/30 03:52:23;;;;;;;62.73;27.33;;;6.50;99.90;;;;;;5030791;28;20033;-56
2022/11/30 03:54:48;;;;;;;56.70;26.90;;;6.50;99.90;;;;;;5030898;28;20029;-56
2022/11/30 03:57:14;;;;;;;61.50;26.93;;;6.50;99.90;;;;;;5030390;28;20091;-51
2022/11/30 03:59:40;;;;;;;57.70;25.53;;;6.50;99.90;;;;;;5030555;28;20040;-56
2022/11/30 04:02:05;;;;;;;58.73;27.07;;;6.50;99.90;;;;;;5030832;28;20029;-57
2022/11/30 04:04:31;;;;;;;61.00;27.37;;;6.50;99.90;;;;;;5030724;28;20034;-55
2022/11/30 04:06:57;;;;;;;59.47;27.87;;;6.50;99.90;;;;;;5030239;28;20479;-54
2022/11/30 04:09:22;;;;;;;60.83;27.00;;;6.50;99.90;;;;;;5030307;28;20041;-53
2022/11/30 04:11:48;;;;;;;58.83;27.17;;;6.40;99.90;;;;;;5030667;28;20025;-56
2022/11/30 04:14:14;;;;;;;59.23;27.50;;;6.40;99.90;;;;;;5030875;28;20036;-54
2022/11/30 04:16:40;;;;;;;59.50;27.77;;;6.40;99.90;;;;;;5017764;28;20026;-53
2022/11/30 04:19:05;;;;;;;55.97;26.70;;;6.40;99.90;;;;;;5010231;28;20034;-56
2022/11/30 04:21:31;;;;;;;60.13;27.90;;;6.40;99.90;;;;;;5010220;28;20030;-56
2022/11/30 04:23:56;;;;;;;58.67;28.50;;;6.40;99.90;;;;;;5010110;28;20034;-55
2022/11/30 04:26:22;;;;;;;63.47;28.60;;;6.40;99.90;;;;;;4997486;28;20030;-56
2022/11/30 04:28:48;;;;;;;64.67;29.97;;;6.40;99.90;;;;;;5008080;28;20429;-54
2022/11/30 04:31:14;;;;;;;59.33;28.20;;;6.40;99.90;;;;;;5010239;28;20042;-55
2022/11/30 04:33:39;;;;;;;66.37;29.57;;;6.40;99.90;;;;;;5010047;28;20095;-53
2022/11/30 04:36:14;;;;;;;59.97;27.87;;;6.40;99.90;;;;;;5010064;28;20033;-55
2022/11/30 04:38:40;;;;;;;60.83;27.77;;;6.40;99.90;;;;;;5009582;28;20113;-57
2022/11/30 04:41:07;;;;;;;60.97;28.93;;;6.50;99.90;;;;;;5009382;28;20063;-56
2022/11/30 04:43:33;;;;;;;65.07;28.43;;;6.40;99.90;;;;;;5009720;28;20494;-55
2022/11/30 04:45:59;;;;;;;63.20;29.43;;;6.50;99.90;;;;;;5002970;28;20054;-56
2022/11/30 04:48:24;;;;;;;58.90;26.77;;;6.40;99.90;;;;;;5008478;28;20037;-55
2022/11/30 04:50:50;;;;;;;54.87;27.23;;;6.50;99.90;;;;;;5009055;28;20072;-55
2022/11/30 04:53:16;;;;;;;54.77;27.83;;;6.40;99.90;;;;;;5008868;28;20042;-55
2022/11/30 04:55:42;;;;;;;53.53;26.37;;;6.50;99.90;;;;;;5009260;28;20043;-57
2022/11/30 04:58:07;;;;;;;46.60;24.17;;;6.50;99.90;;;;;;5008173;28;20041;-54
2022/11/30 05:00:34;;;;;;;47.63;24.10;;;6.50;99.90;;;;;;5008629;28;20054;-56
2022/11/30 05:03:00;;;;;;;48.13;24.40;;;6.50;99.90;;;;;;5009069;28;20034;-56
2022/11/30 05:05:26;;;;;;;46.67;24.03;;;6.50;99.90;;;;;;5009046;28;20091;-57
2022/11/30 05:07:56;;;;;;;47.60;23.60;;;6.50;99.90;;;;;;5008570;28;20038;-57
2022/11/30 05:10:22;;;;;;;46.30;23.43;;;6.50;99.90;;;;;;5009193;28;20073;-56
2022/11/30 05:12:49;;;;;;;43.23;22.00;;;6.50;99.90;;;;;;5008539;28;20034;-56
2022/11/30 05:15:15;;;;;;;47.43;23.57;;;6.40;99.90;;;;;;5008725;28;20125;-56
2022/11/30 05:17:40;;;;;;;43.17;22.70;;;6.50;99.90;;;;;;5008735;28;20041;-56
2022/11/30 05:20:07;;;;;;;44.10;23.73;;;6.40;99.90;;;;;;5008662;28;20038;-55
2022/11/30 05:22:35;;;;;;;47.20;22.33;;;6.40;99.90;;;;;;5008850;28;20073;-57
2022/11/30 05:25:01;;;;;;;41.33;21.67;;;6.40;99.90;;;;;;5008922;28;20065;-54
2022/11/30 05:27:27;;;;;;;43.97;21.57;;;6.40;99.90;;;;;;5007998;28;20066;-56
2022/11/30 05:29:53;;;;;;;45.63;23.27;;;6.40;99.90;;;;;;5010521;28;20029;-55
2022/11/30 05:32:18;;;;;;;41.67;22.23;;;6.40;99.90;;;;;;5012440;28;20037;-53
2022/11/30 05:34:44;;;;;;;45.93;22.63;;;6.40;99.90;;;;;;5012808;28;20026;-55
2022/11/30 05:37:10;;;;;;;42.53;22.70;;;6.40;99.90;;;;;;5012118;28;20438;-53
2022/11/30 05:39:35;;;;;;;50.10;23.07;;;6.40;99.90;;;;;;5012318;28;20029;-53
2022/11/30 05:42:01;;;;;;;50.20;24.67;;;6.40;99.90;;;;;;5011578;28;20030;-54
2022/11/30 05:44:27;;;;;;;48.40;24.23;;;6.50;99.90;;;;;;5012224;28;20493;-55
2022/11/30 05:46:52;;;;;;;48.57;23.70;;;6.50;99.90;;;;;;5011389;28;20041;-55
2022/11/30 05:49:18;;;;;;;46.37;23.87;;;6.50;99.90;;;;;;5010850;28;20041;-55
2022/11/30 05:51:44;;;;;;;45.43;24.03;;;6.50;99.90;;;;;;5011999;28;20041;-58
2022/11/30 05:54:09;;;;;;;42.00;22.93;;;6.50;99.90;;;;;;5012378;28;20100;-55
2022/11/30 05:56:35;;;;;;;44.80;23.43;;;6.50;99.90;;;;;;5011002;28;20266;-55
2022/11/30 05:59:01;;;;;;;51.30;24.50;;;6.40;99.90;;;;;;5012073;28;20471;-52
2022/11/30 06:01:27;;;;;;;47.50;25.30;;;6.50;99.90;;;;;;5011387;28;20124;-53
2022/11/30 06:03:54;;;;;;;48.13;23.87;;;6.50;99.90;;;;;;5011912;28;20037;-52
2022/11/30 06:06:20;;;;;;;46.73;25.33;;;6.40;99.90;;;;;;5011904;28;20100;-52
2022/11/30 06:08:46;;;;;;;46.13;25.47;;;6.40;99.90;;;;;;5011693;28;20030;-53
2022/11/30 06:11:13;;;;;;;48.53;25.10;;;6.40;99.90;;;;;;5011965;28;20037;-56
2022/11/30 06:13:40;;;;;;;49.97;25.53;;;6.40;99.90;;;;;;5011374;28;20113;-55
2022/11/30 06:16:06;;;;;;;48.27;25.10;;;6.40;99.90;;;;;;5011282;28;20029;-55
2022/11/30 06:18:32;;;;;;;52.00;26.53;;;6.40;99.90;;;;;;5011433;28;20148;-57
2022/11/30 06:21:03;;;;;;;52.40;28.00;;;6.40;99.90;;;;;;5011816;28;20117;-54
2022/11/30 06:23:29;;;;;;;53.83;25.90;;;6.40;99.90;;;;;;5011770;28;20386;-57
2022/11/30 06:25:55;;;;;;;53.97;27.40;;;6.40;99.90;;;;;;5011778;28;20096;-54
2022/11/30 06:28:20;;;;;;;50.47;26.80;;;6.40;99.90;;;;;;5010774;28;20486;-50
2022/11/30 06:30:46;;;;;;;52.97;26.57;;;6.40;99.90;;;;;;5010702;28;20050;-50
2022/11/30 06:33:12;;;;;;;55.17;27.67;;;6.30;99.90;;;;;;5011701;28;20494;-51
2022/11/30 06:35:45;;;;;;;52.07;26.77;;;6.40;99.90;;;;;;5010058;28;20462;-47
2022/11/30 06:38:11;;;;;;;51.60;27.07;;;6.40;99.90;;;;;;5010950;28;20108;-54
2022/11/30 06:40:36;;;;;;;53.37;26.13;;;6.40;99.90;;;;;;5009159;28;20125;-53
2022/11/30 06:43:02;;;;;;;52.03;25.90;;;6.50;99.90;;;;;;5010703;28;20052;-53
2022/11/30 06:45:28;;;;;;;54.27;27.77;;;6.50;99.90;;;;;;5010777;28;20140;-55
2022/11/30 06:47:55;;;;;;;51.53;26.70;;;6.50;99.90;;;;;;5010865;28;20112;-56
2022/11/30 06:50:21;;;;;;;52.67;27.57;;;6.50;99.90;;;;;;5010675;28;20018;-56
2022/11/30 06:52:47;;;;;;;54.67;27.57;;;6.50;99.90;;;;;;5009732;28;20049;-55
2022/11/30 06:55:12;;;;;;;53.43;26.93;;;6.50;99.90;;;;;;5010961;28;20177;-56
2022/11/30 06:57:38;;;;;;;49.67;26.13;;;6.50;99.90;;;;;;5009292;28;20046;-56
2022/11/30 07:00:05;;;;;;;51.57;27.13;;;6.50;99.90;;;;;;5010159;28;20064;-53
2022/11/30 07:02:31;;;;;;;54.00;28.10;;;6.50;99.90;;;;;;5010501;28;20045;-52
2022/11/30 07:04:57;;;;;;;57.63;28.50;;;6.50;99.90;;;;;;5010683;28;20069;-55
2022/11/30 07:07:23;;;;;;;51.43;26.87;;;6.50;99.90;;;;;;5010182;28;20494;-44
2022/11/30 07:09:49;;;;;;;52.77;26.90;;;6.50;99.90;;;;;;5010236;28;20137;-43
2022/11/30 07:12:15;;;;;;;53.60;27.37;;;6.50;99.90;;;;;;5009457;28;20105;-43
2022/11/30 07:14:41;;;;;;;55.73;27.97;;;6.50;99.90;;;;;;5010130;28;20232;-55
2022/11/30 07:17:07;;;;;;;59.97;28.77;;;6.50;99.90;;;;;;5010420;28;20390;-52
2022/11/30 07:19:33;;;;;;;53.17;27.07;;;6.50;99.90;;;;;;5010448;28;20131;-50
2022/11/30 07:21:59;;;;;;;52.97;26.63;;;6.50;99.90;;;;;;5010311;28;20109;-52
2022/11/30 07:27:09;;;;;;;52.67;26.73;;;6.50;99.90;;;;;;5009362;28;20044;-52
2022/11/30 07:29:35;;;;;;;55.63;26.90;;;6.50;99.90;;;;;;5010422;28;20033;-52
2022/11/30 07:32:01;;;;;;;51.90;26.30;;;6.50;99.90;;;;;;5009784;28;20030;-50
2022/11/30 07:34:26;;;;;;;54.50;28.60;;;6.50;99.90;;;;;;5010377;28;20141;-53
2022/11/30 07:36:52;;;;;;;54.43;27.50;;;6.50;99.90;;;;;;5007999;28;20034;-49
2022/11/30 07:39:18;;;;;;;55.50;27.70;;;6.50;99.90;;;;;;5009434;28;20553;-52
2022/11/30 07:41:44;;;;;;;56.90;28.43;;;6.50;99.90;;;;;;5008657;28;20548;-52
2022/11/30 07:44:10;;;;;;;50.90;26.03;;;6.50;99.90;;;;;;5010144;28;20069;-51
2022/11/30 07:46:37;;;;;;;53.97;27.60;;;6.50;99.90;;;;;;5008611;28;20037;-53
2022/11/30 07:49:04;;;;;;;56.40;29.03;;;6.50;99.90;;;;;;5009722;28;20021;-51
2022/11/30 07:51:30;;;;;;;57.40;28.33;;;6.60;99.90;;;;;;5009470;28;20030;-49
2022/11/30 07:53:57;;;;;;;58.70;28.70;;;6.60;99.90;;;;;;5008551;28;20034;-51
2022/11/30 07:56:23;;;;;;;56.00;28.83;;;6.60;99.90;;;;;;5007628;28;20075;-53
2022/11/30 07:58:52;;;;;;;56.07;27.87;;;6.60;99.90;;;;;;5009011;28;20081;-53
2022/11/30 08:01:22;;;;;;;55.65;26.60;;;6.60;99.90;;;;;;5008602;28;20026;-51
2022/11/30 08:03:50;;;;;;;56.03;27.03;;;6.70;99.90;;;;;;5009266;28;20040;-52
2022/11/30 08:06:19;;;;;;;60.13;28.60;;;6.60;99.90;;;;;;5008991;28;20032;-53
2022/11/30 08:08:46;;;;;;;58.03;28.70;;;6.60;99.90;;;;;;5008301;28;20152;-53
2022/11/30 08:11:14;;;;;;;54.80;27.63;;;6.70;99.90;;;;;;5008893;28;20406;-51
2022/11/30 08:13:41;;;;;;;60.10;27.73;;;6.70;99.90;;;;;;5008577;28;20104;-51
2022/11/30 08:16:11;;;;;;;61.83;28.70;;;6.70;99.90;;;;;;5008745;28;20487;-52
2022/11/30 08:18:38;;;;;;;56.17;27.97;;;6.80;99.90;;;;;;5008246;28;20030;-51
2022/11/30 08:21:05;;;;;;;58.10;27.60;;;6.90;99.90;;;;;;5008169;28;20042;-50
2022/11/30 08:23:35;;;;;;;61.37;29.93;;;6.90;99.90;;;;;;5008953;28;20033;-52
2022/11/30 08:26:24;;;;;;;70.55;31.50;;;6.90;99.90;;;;;;5009063;28;20073;-52
2022/11/30 08:28:51;;;;;;;65.27;30.93;;;6.90;99.90;;;;;;5006396;28;20478;-49
2022/11/30 08:31:22;;;;;;;60.70;29.83;;;6.80;99.90;;;;;;5008449;28;20099;-49
2022/11/30 08:33:48;;;;;;;61.13;30.07;;;6.70;99.90;;;;;;5009111;28;20136;-54
2022/11/30 08:36:18;;;;;;;62.20;30.10;;;6.70;99.90;;;;;;5007383;28;20138;-49
2022/11/30 08:38:45;;;;;;;62.90;29.83;;;6.70;99.90;;;;;;5008614;28;20041;-51
2022/11/30 08:41:12;;;;;;;63.57;30.80;;;6.70;99.90;;;;;;5008532;28;20038;-52
2022/11/30 08:43:39;;;;;;;64.33;30.27;;;6.60;99.90;;;;;;5008225;28;20030;-54
2022/11/30 08:46:08;;;;;;;64.17;30.67;;;6.70;99.90;;;;;;5008198;28;20116;-52
2022/11/30 08:48:34;;;;;;;64.38;31.48;;;6.70;99.90;;;;;;5008051;28;20117;-52
2022/11/30 08:51:02;;;;;;;72.17;33.43;;;6.60;99.90;;;;;;5008634;28;20474;-53
2022/11/30 08:53:27;;;;;;;75.57;34.57;;;6.60;99.90;;;;;;5008812;28;20034;-54
2022/11/30 08:56:01;;;;;;;74.00;34.63;;;6.50;99.90;;;;;;5008750;28;20116;-52
2022/11/30 08:58:30;;;;;;;100.07;41.57;;;6.60;99.90;;;;;;5007648;28;20053;-51
2022/11/30 09:01:28;;;;;;;97.03;42.53;;;6.60;99.90;;;;;;5008089;28;20042;-52
2022/11/30 09:03:56;;;;;;;106.77;45.50;;;6.60;99.90;;;;;;5007311;28;20038;-53
2022/11/30 09:06:29;;;;;;;105.47;46.90;;;6.60;99.90;;;;;;5011114;28;20451;-53
2022/11/30 09:08:57;;;;;;;114.03;46.53;;;6.60;99.90;;;;;;5012440;28;20117;-50
2022/11/30 09:11:23;;;;;;;91.70;41.40;;;6.60;99.90;;;;;;5011299;28;20390;-50
2022/11/30 09:13:51;;;;;;;70.43;33.90;;;6.60;99.90;;;;;;5012426;28;20061;-50
2022/11/30 09:16:18;;;;;;;72.43;33.87;;;6.50;99.90;;;;;;5011513;28;20022;-57
2022/11/30 09:18:44;;;;;;;72.23;34.90;;;6.50;99.90;;;;;;5008335;28;20109;-56
2022/11/30 09:21:13;;;;;;;72.80;32.90;;;6.50;99.90;;;;;;5011780;28;20025;-51
2022/11/30 09:23:39;;;;;;;71.67;34.57;;;6.50;99.90;;;;;;5011486;28;20034;-54
2022/11/30 09:26:10;;;;;;;72.43;34.67;;;6.50;99.90;;;;;;5012033;28;20471;-57
2022/11/30 09:28:37;;;;;;;70.27;34.53;;;6.50;99.90;;;;;;5010951;28;20033;-54
2022/11/30 09:31:10;;;;;;;65.90;32.20;;;6.60;99.90;;;;;;5011311;28;20455;-50
2022/11/30 09:33:36;;;;;;;66.10;31.03;;;6.60;99.90;;;;;;5012133;28;20478;-50
2022/11/30 09:36:04;;;;;;;68.47;33.30;;;6.50;99.90;;;;;;5010608;28;20040;-49
2022/11/30 09:38:30;;;;;;;70.60;32.70;;;6.40;99.90;;;;;;5008904;28;20434;-53
2022/11/30 09:40:59;;;;;;;64.07;31.73;;;6.30;99.90;;;;;;5011811;28;20437;-51
2022/11/30 09:43:37;;;;;;;69.30;31.65;;;6.40;99.90;;;;;;5010790;28;20034;-52
2022/11/30 09:46:05;;;;;;;67.13;30.83;;;6.30;99.90;;;;;;5011340;28;20061;-51
2022/11/30 09:48:56;;;;;;;67.20;30.13;;;6.40;99.90;;;;;;5009802;28;20076;-54
2022/11/30 09:51:30;;;;;;;65.13;30.47;;;6.40;99.90;;;;;;5011329;28;20335;-52
2022/11/30 09:54:05;;;;;;;66.10;30.47;;;6.40;99.90;;;;;;5011627;28;20092;-50
2022/11/30 09:56:36;;;;;;;68.47;31.90;;;6.30;99.90;;;;;;5010067;28;20030;-51
2022/11/30 09:59:31;;;;;;;67.60;30.63;;;6.30;99.90;;;;;;5010903;28;20128;-49
2022/11/30 10:02:03;;;;;;;65.67;30.30;;;6.30;99.90;;;;;;5009326;28;20348;-53
2022/11/30 10:04:29;;;;;;;67.87;31.30;;;6.40;99.90;;;;;;5011416;28;20041;-54
2022/11/30 10:07:22;;;;;;;67.57;31.10;;;6.40;99.90;;;;;;5010556;28;20034;-52
2022/11/30 10:09:58;;;;;;;62.73;29.67;;;6.40;99.90;;;;;;5010848;28;20038;-53
2022/11/30 10:12:30;;;;;;;58.77;28.33;;;6.50;99.90;;;;;;5010588;28;20026;-54
2022/11/30 10:15:19;;;;;;;58.93;29.13;;;6.50;99.90;;;;;;5010704;28;20220;-49
2022/11/30 10:18:21;;;;;;;67.57;29.50;;;6.50;99.90;;;;;;5009392;28;20099;-52
2022/11/30 10:21:11;;;;;;;60.03;27.73;;;6.50;99.90;;;;;;5009996;28;20108;-53
2022/11/30 10:24:09;;;;;;;60.03;27.87;;;6.50;99.90;;;;;;5009791;28;20088;-54
2022/11/30 10:26:37;;;;;;;66.23;29.33;;;6.50;99.90;;;;;;5008898;28;20133;-49
2022/11/30 10:29:36;;;;;;;62.63;28.67;;;6.50;99.90;;;;;;5010756;28;20190;-48
2022/11/30 10:32:18;;;;;;;60.07;28.73;;;6.50;99.90;;;;;;5009704;28;20482;-49
2022/11/30 10:34:50;;;;;;;61.57;28.40;;;6.60;99.90;;;;;;5010991;28;20486;-49
2022/11/30 10:37:30;;;;;;;59.80;28.53;;;6.60;99.90;;;;;;5023195;28;20390;-48
2022/11/30 10:40:11;;;;;;;60.07;28.60;;;6.60;99.90;;;;;;5030266;28;20048;-51
2022/11/30 10:42:49;;;;;;;54.93;27.90;;;6.70;99.90;;;;;;5009646;28;20045;-51
2022/11/30 10:45:20;;;;;;;58.43;28.63;;;6.70;99.90;;;;;;5009864;28;20463;-50
2022/11/30 10:47:59;;;;;;;57.73;26.93;;;6.70;99.90;;;;;;5009836;28;20458;-50
2022/11/30 10:50:28;;;;;;;54.70;28.08;;;6.80;99.90;;;;;;5010499;28;20112;-51
2022/11/30 10:52:57;;;;;;;54.58;25.35;;;6.80;99.90;;;;;;5011477;28;20398;-52
2022/11/30 10:55:25;;;;;;;59.30;27.88;;;6.70;99.90;;;;;;5010093;28;20049;-52
2022/11/30 10:58:29;;;;;;;56.13;27.33;;;6.60;99.90;;;;;;5011378;28;20026;-53
2022/11/30 11:01:10;;;;;;;57.70;27.70;;;6.60;99.90;;;;;;5008811;28;20458;-52
2022/11/30 11:03:36;;;;;;;58.97;27.87;;;6.60;99.90;;;;;;5011089;28;20042;-50
2022/11/30 11:06:04;;;;;;;57.63;28.37;;;6.60;99.90;;;;;;5012176;28;20486;-54
2022/11/30 11:08:30;;;;;;;63.57;29.03;;;6.60;99.90;;;;;;5011507;28;20446;-52
2022/11/30 11:10:56;;;;;;;56.97;27.80;;;6.70;99.90;;;;;;5012198;28;20071;-55
2022/11/30 11:13:41;;;;;;;62.47;29.93;;;6.70;99.90;;;;;;5012365;28;20471;-51
2022/11/30 11:16:11;;;;;;;56.67;28.13;;;6.70;99.90;;;;;;5011917;28;20041;-53
2022/11/30 11:18:51;;;;;;;55.40;26.93;;;6.80;99.90;;;;;;5011721;28;20041;-54
2022/11/30 11:21:19;;;;;;;60.30;28.50;;;6.90;99.90;;;;;;5012072;28;20037;-53
2022/11/30 11:23:47;;;;;;;55.30;27.93;;;6.90;99.90;;;;;;5011842;28;20030;-49
2022/11/30 11:26:19;;;;;;;53.07;27.23;;;7.00;99.90;;;;;;5011825;28;20041;-54
2022/11/30 11:28:48;;;;;;;57.23;27.70;;;6.90;99.90;;;;;;5011271;28;20034;-50
2022/11/30 11:31:24;;;;;;;53.37;25.93;;;6.90;99.90;;;;;;5011539;28;20030;-52
2022/11/30 11:33:52;;;;;;;55.93;27.57;;;6.90;99.90;;;;;;5011586;28;20060;-50
2022/11/30 11:36:28;;;;;;;52.63;26.20;;;6.90;99.90;;;;;;5011431;28;20026;-52
2022/11/30 11:38:55;;;;;;;53.07;26.23;;;6.90;99.90;;;;;;5011325;28;20335;-50
2022/11/30 11:41:24;;;;;;;53.13;25.83;;;6.90;99.90;;;;;;5011367;28;20026;-50
2022/11/30 11:43:57;;;;;;;52.58;26.10;;;6.90;99.90;;;;;;5011428;28;20030;-52
2022/11/30 11:46:23;;;;;;;53.73;26.23;;;6.90;99.90;;;;;;5011154;28;20033;-50
2022/11/30 11:49:01;;;;;;;53.70;27.53;;;6.90;99.90;;;;;;5010899;28;20490;-52
2022/11/30 11:51:38;;;;;;;54.53;27.40;;;7.00;99.90;;;;;;5011244;28;20030;-53
2022/11/30 11:54:18;;;;;;;56.00;27.30;;;6.90;99.90;;;;;;5011243;28;20087;-53
2022/11/30 11:56:43;;;;;;;55.47;27.13;;;6.90;99.90;;;;;;5011082;28;20144;-50
2022/11/30 11:59:09;;;;;;;53.37;25.73;;;6.90;99.90;;;;;;5010925;28;20494;-51
2022/11/30 12:01:49;;;;;;;54.83;26.83;;;6.90;99.90;;;;;;5010950;28;20415;-52
2022/11/30 12:04:44;;;;;;;;;;;6.80;99.90;;;;;;5011483;28;20057;-52
2022/11/30 12:10:22;;;;;;;55.80;25.30;;;6.80;99.90;;;;;;4931608;29;20139;-50
2022/11/30 12:12:48;;;;;;;56.80;28.20;;;6.70;99.90;;;;;;4933564;29;20107;-47
2022/11/30 12:15:14;;;;;;;56.03;26.07;;;6.70;99.90;;;;;;4933521;29;20102;-51
2022/11/30 12:18:01;;;;;;;55.23;26.40;;;6.80;99.90;;;;;;4933160;28;20043;-50
2022/11/30 12:20:49;;;;;;;54.63;26.60;;;6.80;99.90;;;;;;4933281;29;20035;-51
2022/11/30 12:23:32;;;;;;;56.43;25.23;;;6.70;99.90;;;;;;4933573;29;20167;-51
2022/11/30 12:26:06;;;;;;;56.07;25.43;;;6.80;99.90;;;;;;4933411;29;20539;-53
2022/11/30 12:28:56;;;;;;;54.57;25.70;;;6.70;99.90;;;;;;4932936;29;20027;-49
2022/11/30 12:31:28;;;;;;;49.63;24.20;;;6.70;99.90;;;;;;4933359;29;20047;-50
2022/11/30 12:34:16;;;;;;;54.93;26.57;;;6.70;99.90;;;;;;4933485;29;20044;-52
2022/11/30 12:37:05;;;;;;;53.17;25.33;;;6.70;99.90;;;;;;4932942;29;20039;-50
2022/11/30 12:39:46;;;;;;;54.30;26.45;;;6.70;99.90;;;;;;4932468;29;20046;-51
2022/11/30 12:42:57;;;;;;;52.17;25.27;;;6.70;99.90;;;;;;4933223;29;20036;-53
2022/11/30 12:45:32;;;;;;;49.87;24.33;;;6.80;99.90;;;;;;4949803;28;20125;-52
2022/11/30 12:48:04;;;;;;;53.17;24.73;;;6.70;99.90;;;;;;4935322;29;20044;-52
2022/11/30 12:50:46;;;;;;;55.07;25.33;;;6.70;99.90;;;;;;4933098;28;20063;-53
2022/11/30 12:53:33;;;;;;;51.27;25.47;;;6.70;99.90;;;;;;4933752;29;20027;-49
2022/11/30 12:56:17;;;;;;;46.00;23.47;;;6.80;99.90;;;;;;4933695;29;20038;-50